sensor_id;sensor_type;location;lat;lon;timestamp;pressure;altitude;pressure_sealevel;temperature
31921;BMP280;66485;52.128;4.436;2023-05-07T00:00:04;101695.28;;;21.20
31921;BMP280;66485;52.128;4.436;2023-05-07T00:02:33;101695.28;;;21.20
31921;BMP280;66485;52.128;4.436;2023-05-07T00:04:58;101706.19;;;21.24
31921;BMP280;66485;52.128;4.436;2023-05-07T00:07:23;101706.19;;;21.24
31921;BMP280;66485;52.128;4.436;2023-05-07T00:09:49;101711.63;;;21.24
31921;BMP280;66485;52.128;4.436;2023-05-07T00:12:14;101720.53;;;21.24
31921;BMP280;66485;52.128;4.436;2023-05-07T00:14:39;101727.56;;;21.22
31921;BMP280;66485;52.128;4.436;2023-05-07T00:17:05;101727.56;;;21.22
31921;BMP280;66485;52.128;4.436;2023-05-07T00:19:30;101721.44;;;21.18
31921;BMP280;66485;52.128;4.436;2023-05-07T00:21:56;101722.53;;;21.20
31921;BMP280;66485;52.128;4.436;2023-05-07T00:24:23;101721.91;;;21.13
31921;BMP280;66485;52.128;4.436;2023-05-07T00:26:48;101721.91;;;21.13
31921;BMP280;66485;52.128;4.436;2023-05-07T00:29:14;101710.19;;;21.16
31921;BMP280;66485;52.128;4.436;2023-05-07T00:31:39;101719.47;;;21.18
31921;BMP280;66485;52.128;4.436;2023-05-07T00:34:05;101719.47;;;21.18
31921;BMP280;66485;52.128;4.436;2023-05-07T00:36:31;101714.03;;;21.18
31921;BMP280;66485;52.128;4.436;2023-05-07T00:38:58;101715.53;;;21.23
31921;BMP280;66485;52.128;4.436;2023-05-07T00:41:23;101715.53;;;21.23
31921;BMP280;66485;52.128;4.436;2023-05-07T00:43:49;101706.19;;;21.20
31921;BMP280;66485;52.128;4.436;2023-05-07T00:46:16;101706.19;;;21.20
31921;BMP280;66485;52.128;4.436;2023-05-07T00:48:42;101703.13;;;21.18
31921;BMP280;66485;52.128;4.436;2023-05-07T00:51:07;101703.13;;;21.18
31921;BMP280;66485;52.128;4.436;2023-05-07T00:53:34;101703.53;;;21.17
31921;BMP280;66485;52.128;4.436;2023-05-07T00:56:00;101703.53;;;21.17
31921;BMP280;66485;52.128;4.436;2023-05-07T00:58:26;101704.38;;;21.14
31921;BMP280;66485;52.128;4.436;2023-05-07T01:00:51;101716.75;;;21.18
31921;BMP280;66485;52.128;4.436;2023-05-07T01:03:17;101707.03;;;21.17
31921;BMP280;66485;52.128;4.436;2023-05-07T01:05:42;101703.53;;;21.17
31921;BMP280;66485;52.128;4.436;2023-05-07T01:08:09;101703.53;;;21.17
31921;BMP280;66485;52.128;4.436;2023-05-07T01:10:35;101697.38;;;21.13
31921;BMP280;66485;52.128;4.436;2023-05-07T01:13:01;101699.69;;;21.14
31921;BMP280;66485;52.128;4.436;2023-05-07T01:15:26;101699.69;;;21.14
31921;BMP280;66485;52.128;4.436;2023-05-07T01:17:52;101693.13;;;21.12
31921;BMP280;66485;52.128;4.436;2023-05-07T01:20:18;101693.13;;;21.12
31921;BMP280;66485;52.128;4.436;2023-05-07T01:22:44;101686.13;;;21.11
31921;BMP280;66485;52.128;4.436;2023-05-07T01:25:09;101689.22;;;21.13
31921;BMP280;66485;52.128;4.436;2023-05-07T01:27:35;101684.53;;;21.13
31921;BMP280;66485;52.128;4.436;2023-05-07T01:30:03;101684.53;;;21.13
31921;BMP280;66485;52.128;4.436;2023-05-07T01:32:35;101686.13;;;21.11
31921;BMP280;66485;52.128;4.436;2023-05-07T01:35:03;101686.47;;;21.13
31921;BMP280;66485;52.128;4.436;2023-05-07T01:37:30;101677.94;;;21.11
31921;BMP280;66485;52.128;4.436;2023-05-07T01:39:56;101681.84;;;21.10
31921;BMP280;66485;52.128;4.436;2023-05-07T01:42:22;101683.78;;;21.09
31921;BMP280;66485;52.128;4.436;2023-05-07T01:44:48;101697.84;;;21.08
31921;BMP280;66485;52.128;4.436;2023-05-07T01:47:14;101697.84;;;21.08
31921;BMP280;66485;52.128;4.436;2023-05-07T01:49:40;101687.00;;;21.04
31921;BMP280;66485;52.128;4.436;2023-05-07T01:52:06;101683.16;;;21.02
31921;BMP280;66485;52.128;4.436;2023-05-07T01:54:31;101681.50;;;21.08
31921;BMP280;66485;52.128;4.436;2023-05-07T01:56:56;101686.59;;;21.06
31921;BMP280;66485;52.128;4.436;2023-05-07T01:59:22;101683.03;;;21.09
31921;BMP280;66485;52.128;4.436;2023-05-07T02:01:47;101687.69;;;21.08
31921;BMP280;66485;52.128;4.436;2023-05-07T02:04:13;101688.53;;;21.05
31921;BMP280;66485;52.128;4.436;2023-05-07T02:06:38;101692.44;;;21.04
31921;BMP280;66485;52.128;4.436;2023-05-07T02:09:04;101692.88;;;21.03
31921;BMP280;66485;52.128;4.436;2023-05-07T02:11:29;101695.94;;;21.05
31921;BMP280;66485;52.128;4.436;2023-05-07T02:13:57;101693.22;;;21.05
31921;BMP280;66485;52.128;4.436;2023-05-07T02:16:22;101687.78;;;21.05
31921;BMP280;66485;52.128;4.436;2023-05-07T02:18:48;101698.66;;;21.05
31921;BMP280;66485;52.128;4.436;2023-05-07T02:21:14;101698.66;;;21.05
31921;BMP280;66485;52.128;4.436;2023-05-07T02:23:39;101689.38;;;21.02
31921;BMP280;66485;52.128;4.436;2023-05-07T02:26:05;101683.09;;;21.05
31921;BMP280;66485;52.128;4.436;2023-05-07T02:28:30;101694.88;;;20.99
31921;BMP280;66485;52.128;4.436;2023-05-07T02:30:55;101694.06;;;21.02
31921;BMP280;66485;52.128;4.436;2023-05-07T02:33:23;101693.28;;;21.01
31921;BMP280;66485;52.128;4.436;2023-05-07T02:35:49;101693.66;;;21.00
31921;BMP280;66485;52.128;4.436;2023-05-07T02:38:14;101691.72;;;21.00
31921;BMP280;66485;52.128;4.436;2023-05-07T02:40:39;101686.25;;;21.00
31921;BMP280;66485;52.128;4.436;2023-05-07T02:43:05;101686.25;;;21.00
31921;BMP280;66485;52.128;4.436;2023-05-07T02:45:32;101700.69;;;21.01
31921;BMP280;66485;52.128;4.436;2023-05-07T02:47:57;101703.41;;;21.01
31921;BMP280;66485;52.128;4.436;2023-05-07T02:50:23;101691.72;;;21.00
31921;BMP280;66485;52.128;4.436;2023-05-07T02:52:48;101698.72;;;21.01
31921;BMP280;66485;52.128;4.436;2023-05-07T02:55:14;101698.72;;;21.01
31921;BMP280;66485;52.128;4.436;2023-05-07T02:57:39;101690.56;;;21.01
31921;BMP280;66485;52.128;4.436;2023-05-07T03:00:12;101701.09;;;20.99
31921;BMP280;66485;52.128;4.436;2023-05-07T03:02:38;101701.09;;;20.99
31921;BMP280;66485;52.128;4.436;2023-05-07T03:05:04;101702.28;;;20.98
31921;BMP280;66485;52.128;4.436;2023-05-07T03:07:29;101702.28;;;20.98
31921;BMP280;66485;52.128;4.436;2023-05-07T03:09:55;101698.78;;;20.98
31921;BMP280;66485;52.128;4.436;2023-05-07T03:12:20;101698.78;;;20.98
31921;BMP280;66485;52.128;4.436;2023-05-07T03:14:45;101699.63;;;20.95
31921;BMP280;66485;52.128;4.436;2023-05-07T03:17:11;101695.63;;;20.99
31921;BMP280;66485;52.128;4.436;2023-05-07T03:19:36;101685.50;;;21.00
31921;BMP280;66485;52.128;4.436;2023-05-07T03:22:01;101685.16;;;20.98
31921;BMP280;66485;52.128;4.436;2023-05-07T03:24:27;101700.31;;;20.99
31921;BMP280;66485;52.128;4.436;2023-05-07T03:26:52;101690.59;;;20.98
31921;BMP280;66485;52.128;4.436;2023-05-07T03:29:17;101689.81;;;20.97
31921;BMP280;66485;52.128;4.436;2023-05-07T03:31:43;101684.78;;;20.96
31921;BMP280;66485;52.128;4.436;2023-05-07T03:34:08;101681.72;;;20.94
31921;BMP280;66485;52.128;4.436;2023-05-07T03:36:33;101686.00;;;20.95
31921;BMP280;66485;52.128;4.436;2023-05-07T03:38:58;101675.44;;;20.97
31921;BMP280;66485;52.128;4.436;2023-05-07T03:41:24;101683.28;;;20.95
31921;BMP280;66485;52.128;4.436;2023-05-07T03:43:50;101683.28;;;20.95
31921;BMP280;66485;52.128;4.436;2023-05-07T03:46:15;101680.13;;;20.96
31921;BMP280;66485;52.128;4.436;2023-05-07T03:48:41;101682.06;;;20.96
31921;BMP280;66485;52.128;4.436;2023-05-07T03:51:06;101683.28;;;20.95
31921;BMP280;66485;52.128;4.436;2023-05-07T03:53:31;101689.50;;;20.95
31921;BMP280;66485;52.128;4.436;2023-05-07T03:55:57;101694.50;;;20.97
31921;BMP280;66485;52.128;4.436;2023-05-07T03:58:22;101694.50;;;20.97
31921;BMP280;66485;52.128;4.436;2023-05-07T04:00:47;101696.53;;;20.93
31921;BMP280;66485;52.128;4.436;2023-05-07T04:03:13;101702.75;;;20.93
31921;BMP280;66485;52.128;4.436;2023-05-07T04:05:39;101706.22;;;20.94
31921;BMP280;66485;52.128;4.436;2023-05-07T04:08:05;101705.13;;;20.91
31921;BMP280;66485;52.128;4.436;2023-05-07T04:10:31;101701.97;;;20.93
31921;BMP280;66485;52.128;4.436;2023-05-07T04:12:56;101697.69;;;20.92
31921;BMP280;66485;52.128;4.436;2023-05-07T04:15:22;101701.97;;;20.93
31921;BMP280;66485;52.128;4.436;2023-05-07T04:17:48;101703.91;;;20.92
31921;BMP280;66485;52.128;4.436;2023-05-07T04:20:16;101704.34;;;20.91
31921;BMP280;66485;52.128;4.436;2023-05-07T04:22:42;101703.16;;;20.92
31921;BMP280;66485;52.128;4.436;2023-05-07T04:25:08;101703.16;;;20.92
31921;BMP280;66485;52.128;4.436;2023-05-07T04:27:35;101707.41;;;20.93
31921;BMP280;66485;52.128;4.436;2023-05-07T04:30:01;101707.41;;;20.93
31921;BMP280;66485;52.128;4.436;2023-05-07T04:32:27;101708.59;;;20.92
31921;BMP280;66485;52.128;4.436;2023-05-07T04:34:54;101701.97;;;20.93
31921;BMP280;66485;52.128;4.436;2023-05-07T04:37:20;101705.13;;;20.91
31921;BMP280;66485;52.128;4.436;2023-05-07T04:39:46;101710.19;;;20.89
31921;BMP280;66485;52.128;4.436;2023-05-07T04:42:17;101706.69;;;20.88
31921;BMP280;66485;52.128;4.436;2023-05-07T04:44:43;101706.69;;;20.88
31921;BMP280;66485;52.128;4.436;2023-05-07T04:47:08;101706.69;;;20.88
31921;BMP280;66485;52.128;4.436;2023-05-07T04:49:34;101705.50;;;20.89
31921;BMP280;66485;52.128;4.436;2023-05-07T04:51:59;101712.88;;;20.93
31921;BMP280;66485;52.128;4.436;2023-05-07T04:54:25;101720.69;;;20.91
31921;BMP280;66485;52.128;4.436;2023-05-07T04:56:50;101720.69;;;20.91
31921;BMP280;66485;52.128;4.436;2023-05-07T04:59:16;101717.56;;;20.88
31921;BMP280;66485;52.128;4.436;2023-05-07T05:01:41;101717.97;;;20.91
31921;BMP280;66485;52.128;4.436;2023-05-07T05:04:06;101723.41;;;20.91
31921;BMP280;66485;52.128;4.436;2023-05-07T05:06:32;101720.69;;;20.91
31921;BMP280;66485;52.128;4.436;2023-05-07T05:08:57;101716.41;;;20.89
31921;BMP280;66485;52.128;4.436;2023-05-07T05:11:22;101724.56;;;20.89
31921;BMP280;66485;52.128;4.436;2023-05-07T05:13:49;101718.34;;;20.89
31921;BMP280;66485;52.128;4.436;2023-05-07T05:16:15;101723.03;;;20.88
31921;BMP280;66485;52.128;4.436;2023-05-07T05:18:40;101720.28;;;20.88
31921;BMP280;66485;52.128;4.436;2023-05-07T05:21:06;101730.00;;;20.89
31921;BMP280;66485;52.128;4.436;2023-05-07T05:23:31;101724.97;;;20.88
31921;BMP280;66485;52.128;4.436;2023-05-07T05:25:57;101719.91;;;20.90
31921;BMP280;66485;52.128;4.436;2023-05-07T05:28:25;101721.84;;;20.89
31921;BMP280;66485;52.128;4.436;2023-05-07T05:30:50;101721.84;;;20.89
31921;BMP280;66485;52.128;4.436;2023-05-07T05:33:16;101724.63;;;20.86
31921;BMP280;66485;52.128;4.436;2023-05-07T05:35:41;101726.91;;;20.87
31921;BMP280;66485;52.128;4.436;2023-05-07T05:38:07;101734.31;;;20.91
31921;BMP280;66485;52.128;4.436;2023-05-07T05:40:33;101729.63;;;20.91
31921;BMP280;66485;52.128;4.436;2023-05-07T05:42:59;101739.75;;;20.91
31921;BMP280;66485;52.128;4.436;2023-05-07T05:45:24;101741.28;;;20.92
31921;BMP280;66485;52.128;4.436;2023-05-07T05:47:50;101733.09;;;20.92
31921;BMP280;66485;52.128;4.436;2023-05-07T05:50:15;101749.44;;;20.92
31921;BMP280;66485;52.128;4.436;2023-05-07T05:52:40;101748.63;;;20.95
31921;BMP280;66485;52.128;4.436;2023-05-07T05:55:06;101747.88;;;20.94
31921;BMP280;66485;52.128;4.436;2023-05-07T05:57:32;101748.28;;;20.93
31921;BMP280;66485;52.128;4.436;2023-05-07T05:59:57;101748.28;;;20.93
31921;BMP280;66485;52.128;4.436;2023-05-07T06:02:23;101743.25;;;20.91
31921;BMP280;66485;52.128;4.436;2023-05-07T06:04:48;101747.50;;;20.92
31921;BMP280;66485;52.128;4.436;2023-05-07T06:07:14;101752.53;;;20.94
31921;BMP280;66485;52.128;4.436;2023-05-07T06:09:39;101748.63;;;20.95
31921;BMP280;66485;52.128;4.436;2023-05-07T06:12:04;101750.16;;;20.96
31921;BMP280;66485;52.128;4.436;2023-05-07T06:14:30;101750.94;;;20.96
31921;BMP280;66485;52.128;4.436;2023-05-07T06:16:55;101749.41;;;20.95
31921;BMP280;66485;52.128;4.436;2023-05-07T06:19:20;101755.59;;;20.96
31921;BMP280;66485;52.128;4.436;2023-05-07T06:21:48;101757.16;;;20.97
31921;BMP280;66485;52.128;4.436;2023-05-07T06:24:14;101749.75;;;20.97
31921;BMP280;66485;52.128;4.436;2023-05-07T06:26:39;101759.47;;;20.98
31921;BMP280;66485;52.128;4.436;2023-05-07T06:29:05;101745.84;;;20.98
31921;BMP280;66485;52.128;4.436;2023-05-07T06:31:31;101757.88;;;21.01
31921;BMP280;66485;52.128;4.436;2023-05-07T06:33:57;101762.53;;;21.00
31921;BMP280;66485;52.128;4.436;2023-05-07T06:36:22;101755.94;;;21.01
31921;BMP280;66485;52.128;4.436;2023-05-07T06:38:48;101764.88;;;21.02
31921;BMP280;66485;52.128;4.436;2023-05-07T06:41:13;101769.56;;;21.01
31921;BMP280;66485;52.128;4.436;2023-05-07T06:43:39;101770.31;;;21.02
31921;BMP280;66485;52.128;4.436;2023-05-07T06:46:04;101768.38;;;21.02
31921;BMP280;66485;52.128;4.436;2023-05-07T06:48:30;101768.38;;;21.02
31921;BMP280;66485;52.128;4.436;2023-05-07T06:50:55;101760.97;;;21.03
31921;BMP280;66485;52.128;4.436;2023-05-07T06:53:22;101760.97;;;21.03
31921;BMP280;66485;52.128;4.436;2023-05-07T06:55:48;101762.53;;;21.04
31921;BMP280;66485;52.128;4.436;2023-05-07T06:58:13;101763.63;;;21.06
31921;BMP280;66485;52.128;4.436;2023-05-07T07:00:39;101766.38;;;21.06
31921;BMP280;66485;52.128;4.436;2023-05-07T07:03:05;101757.00;;;21.07
31921;BMP280;66485;52.128;4.436;2023-05-07T07:05:31;101758.53;;;21.08
31921;BMP280;66485;52.128;4.436;2023-05-07T07:07:56;101768.25;;;21.09
31921;BMP280;66485;52.128;4.436;2023-05-07T07:10:22;101763.56;;;21.10
31921;BMP280;66485;52.128;4.436;2023-05-07T07:12:48;101758.91;;;21.10
31921;BMP280;66485;52.128;4.436;2023-05-07T07:15:14;101765.91;;;21.11
31921;BMP280;66485;52.128;4.436;2023-05-07T07:17:40;101766.69;;;21.12
31921;BMP280;66485;52.128;4.436;2023-05-07T07:20:06;101766.69;;;21.12
31921;BMP280;66485;52.128;4.436;2023-05-07T07:22:31;101765.50;;;21.13
31921;BMP280;66485;52.128;4.436;2023-05-07T07:24:57;101765.91;;;21.11
31921;BMP280;66485;52.128;4.436;2023-05-07T07:27:22;101758.88;;;21.14
31921;BMP280;66485;52.128;4.436;2023-05-07T07:29:47;101762.38;;;21.14
31921;BMP280;66485;52.128;4.436;2023-05-07T07:32:13;101761.59;;;21.14
31921;BMP280;66485;52.128;4.436;2023-05-07T07:34:38;101764.69;;;21.16
31921;BMP280;66485;52.128;4.436;2023-05-07T07:37:03;101764.69;;;21.16
31921;BMP280;66485;52.128;4.436;2023-05-07T07:39:32;101764.69;;;21.16
31921;BMP280;66485;52.128;4.436;2023-05-07T07:41:57;101765.03;;;21.18
31921;BMP280;66485;52.128;4.436;2023-05-07T07:44:22;101769.28;;;21.19
31921;BMP280;66485;52.128;4.436;2023-05-07T07:46:48;101769.28;;;21.19
31921;BMP280;66485;52.128;4.436;2023-05-07T07:49:14;101760.34;;;21.18
31921;BMP280;66485;52.128;4.436;2023-05-07T07:51:39;101761.88;;;21.19
31921;BMP280;66485;52.128;4.436;2023-05-07T07:54:05;101761.88;;;21.19
31921;BMP280;66485;52.128;4.436;2023-05-07T07:56:32;101765.03;;;21.18
31921;BMP280;66485;52.128;4.436;2023-05-07T07:58:58;101768.44;;;21.22
31921;BMP280;66485;52.128;4.436;2023-05-07T08:01:23;101771.56;;;21.24
31921;BMP280;66485;52.128;4.436;2023-05-07T08:03:49;101766.88;;;21.24
31921;BMP280;66485;52.128;4.436;2023-05-07T08:06:15;101764.91;;;21.25
31921;BMP280;66485;52.128;4.436;2023-05-07T08:08:40;101766.81;;;21.28
31921;BMP280;66485;52.128;4.436;2023-05-07T08:11:06;101772.63;;;21.30
31921;BMP280;66485;52.128;4.436;2023-05-07T08:13:31;101768.72;;;21.31
31921;BMP280;66485;52.128;4.436;2023-05-07T08:15:56;101780.38;;;21.32
31921;BMP280;66485;52.128;4.436;2023-05-07T08:18:22;101785.06;;;21.31
31921;BMP280;66485;52.128;4.436;2023-05-07T08:20:50;101785.44;;;21.33
31921;BMP280;66485;52.128;4.436;2023-05-07T08:23:15;101786.19;;;21.34
31921;BMP280;66485;52.128;4.436;2023-05-07T08:25:40;101786.19;;;21.34
31921;BMP280;66485;52.128;4.436;2023-05-07T08:28:07;101787.34;;;21.36
31921;BMP280;66485;52.128;4.436;2023-05-07T08:30:33;101784.19;;;21.38
31921;BMP280;66485;52.128;4.436;2023-05-07T08:32:58;101786.50;;;21.39
31921;BMP280;66485;52.128;4.436;2023-05-07T08:35:23;101788.06;;;21.40
31921;BMP280;66485;52.128;4.436;2023-05-07T08:37:49;101794.69;;;21.39
31921;BMP280;66485;52.128;4.436;2023-05-07T08:40:14;101795.47;;;21.40
31921;BMP280;66485;52.128;4.436;2023-05-07T08:42:39;101796.97;;;21.41
31921;BMP280;66485;52.128;4.436;2023-05-07T08:45:09;101796.97;;;21.41
31921;BMP280;66485;52.128;4.436;2023-05-07T08:47:47;101802.78;;;21.43
31921;BMP280;66485;52.128;4.436;2023-05-07T08:50:15;101799.69;;;21.44
31921;BMP280;66485;52.128;4.436;2023-05-07T08:52:41;101799.69;;;21.44
31921;BMP280;66485;52.128;4.436;2023-05-07T08:55:07;101793.47;;;21.44
31921;BMP280;66485;52.128;4.436;2023-05-07T08:57:34;101796.97;;;21.44
31921;BMP280;66485;52.128;4.436;2023-05-07T08:59:59;101803.13;;;21.48
31921;BMP280;66485;52.128;4.436;2023-05-07T09:02:25;101806.19;;;21.50
31921;BMP280;66485;52.128;4.436;2023-05-07T09:04:50;101808.13;;;21.50
31921;BMP280;66485;52.128;4.436;2023-05-07T09:07:16;101806.19;;;21.50
31921;BMP280;66485;52.128;4.436;2023-05-07T09:09:43;101809.31;;;21.49
31921;BMP280;66485;52.128;4.436;2023-05-07T09:12:09;101809.69;;;21.51
31921;BMP280;66485;52.128;4.436;2023-05-07T09:14:34;101809.25;;;21.52
31921;BMP280;66485;52.128;4.436;2023-05-07T09:17:00;101810.41;;;21.55
31921;BMP280;66485;52.128;4.436;2023-05-07T09:19:26;101812.75;;;21.56
31921;BMP280;66485;52.128;4.436;2023-05-07T09:22:02;101811.53;;;21.57
31921;BMP280;66485;52.128;4.436;2023-05-07T09:24:28;101808.38;;;21.59
31921;BMP280;66485;52.128;4.436;2023-05-07T09:26:59;101813.41;;;21.60
31921;BMP280;66485;52.128;4.436;2023-05-07T09:29:25;101821.97;;;21.62
31921;BMP280;66485;52.128;4.436;2023-05-07T09:31:50;101809.50;;;21.61
31921;BMP280;66485;52.128;4.436;2023-05-07T09:34:16;101817.63;;;21.65
31921;BMP280;66485;52.128;4.436;2023-05-07T09:36:41;101817.63;;;21.65
31921;BMP280;66485;52.128;4.436;2023-05-07T09:39:07;101820.31;;;21.68
31921;BMP280;66485;52.128;4.436;2023-05-07T09:41:32;101817.16;;;21.70
31921;BMP280;66485;52.128;4.436;2023-05-07T09:43:58;101808.97;;;21.70
31921;BMP280;66485;52.128;4.436;2023-05-07T09:46:30;101812.81;;;21.73
31921;BMP280;66485;52.128;4.436;2023-05-07T09:49:01;101812.81;;;21.73
31921;BMP280;66485;52.128;4.436;2023-05-07T09:51:36;101815.97;;;21.71
31921;BMP280;66485;52.128;4.436;2023-05-07T09:54:04;101812.47;;;21.70
31921;BMP280;66485;52.128;4.436;2023-05-07T09:56:30;101824.50;;;21.73
31921;BMP280;66485;52.128;4.436;2023-05-07T09:58:59;101828.78;;;21.74
31921;BMP280;66485;52.128;4.436;2023-05-07T10:01:25;101822.53;;;21.74
31921;BMP280;66485;52.128;4.436;2023-05-07T10:03:51;101827.66;;;21.72
31921;BMP280;66485;52.128;4.436;2023-05-07T10:06:17;101831.91;;;21.73
31921;BMP280;66485;52.128;4.436;2023-05-07T10:08:43;101829.19;;;21.73
31921;BMP280;66485;52.128;4.436;2023-05-07T10:11:09;101829.19;;;21.73
31921;BMP280;66485;52.128;4.436;2023-05-07T10:13:35;101829.53;;;21.75
31921;BMP280;66485;52.128;4.436;2023-05-07T10:16:05;101832.28;;;21.75
31921;BMP280;66485;52.128;4.436;2023-05-07T10:18:31;101823.22;;;21.81
31921;BMP280;66485;52.128;4.436;2023-05-07T10:21:19;101828.31;;;21.79
31921;BMP280;66485;52.128;4.436;2023-05-07T10:23:48;101829.03;;;21.83
31921;BMP280;66485;52.128;4.436;2023-05-07T10:26:15;101829.03;;;21.83
31921;BMP280;66485;52.128;4.436;2023-05-07T10:28:45;101830.63;;;21.81
31921;BMP280;66485;52.128;4.436;2023-05-07T10:34:16;101822.69;;;21.90
31921;BMP280;66485;52.128;4.436;2023-05-07T10:36:43;101820.25;;;21.95
31921;BMP280;66485;52.128;4.436;2023-05-07T10:39:09;101817.84;;;21.97
31921;BMP280;66485;52.128;4.436;2023-05-07T10:41:34;101826.84;;;21.98
31921;BMP280;66485;52.128;4.436;2023-05-07T10:44:00;101821.00;;;21.96
31921;BMP280;66485;52.128;4.436;2023-05-07T10:46:27;101821.00;;;21.96
31921;BMP280;66485;52.128;4.436;2023-05-07T10:51:29;101828.50;;;21.92
31921;BMP280;66485;52.128;4.436;2023-05-07T10:56:37;101836.59;;;21.95
31921;BMP280;66485;52.128;4.436;2023-05-07T11:01:55;101841.25;;;21.98
31921;BMP280;66485;52.128;4.436;2023-05-07T11:04:21;101842.28;;;22.04
31921;BMP280;66485;52.128;4.436;2023-05-07T11:12:17;101837.00;;;22.17
31921;BMP280;66485;52.128;4.436;2023-05-07T11:14:43;101835.03;;;22.18
31921;BMP280;66485;52.128;4.436;2023-05-07T11:17:09;101832.31;;;22.18
31921;BMP280;66485;52.128;4.436;2023-05-07T11:19:50;101832.31;;;22.18
31921;BMP280;66485;52.128;4.436;2023-05-07T11:24:57;101834.75;;;22.12
31921;BMP280;66485;52.128;4.436;2023-05-07T11:27:24;101835.97;;;22.11
31921;BMP280;66485;52.128;4.436;2023-05-07T11:29:50;101840.63;;;22.10
31921;BMP280;66485;52.128;4.436;2023-05-07T11:32:22;101836.75;;;22.08
31921;BMP280;66485;52.128;4.436;2023-05-07T11:34:51;101851.97;;;22.09
31921;BMP280;66485;52.128;4.436;2023-05-07T11:37:17;101852.00;;;22.05
31921;BMP280;66485;52.128;4.436;2023-05-07T11:39:42;101852.00;;;22.05
31921;BMP280;66485;52.128;4.436;2023-05-07T11:42:25;101848.88;;;22.07
31921;BMP280;66485;52.128;4.436;2023-05-07T11:44:51;101848.50;;;22.05
31921;BMP280;66485;52.128;4.436;2023-05-07T11:47:17;101848.50;;;22.05
31921;BMP280;66485;52.128;4.436;2023-05-07T11:49:43;101853.63;;;22.03
31921;BMP280;66485;52.128;4.436;2023-05-07T11:52:09;101859.94;;;22.00
31921;BMP280;66485;52.128;4.436;2023-05-07T11:54:35;101850.53;;;22.01
31921;BMP280;66485;52.128;4.436;2023-05-07T11:57:01;101855.22;;;22.00
31921;BMP280;66485;52.128;4.436;2023-05-07T11:59:27;101858.72;;;22.01
31921;BMP280;66485;52.128;4.436;2023-05-07T12:01:52;101858.72;;;22.01
31921;BMP280;66485;52.128;4.436;2023-05-07T12:04:19;101862.31;;;21.98
31921;BMP280;66485;52.128;4.436;2023-05-07T12:06:45;101872.38;;;22.01
31921;BMP280;66485;52.128;4.436;2023-05-07T12:09:11;101872.38;;;22.01
31921;BMP280;66485;52.128;4.436;2023-05-07T12:11:36;101872.38;;;22.01
31921;BMP280;66485;52.128;4.436;2023-05-07T12:14:05;101872.38;;;22.01
31921;BMP280;66485;52.128;4.436;2023-05-07T12:16:30;101878.19;;;22.03
31921;BMP280;66485;52.128;4.436;2023-05-07T12:18:56;101881.31;;;22.01
31921;BMP280;66485;52.128;4.436;2023-05-07T12:21:24;101881.31;;;22.01
31921;BMP280;66485;52.128;4.436;2023-05-07T12:23:50;101866.91;;;22.01
31921;BMP280;66485;52.128;4.436;2023-05-07T12:26:15;101874.25;;;22.04
31921;BMP280;66485;52.128;4.436;2023-05-07T12:28:40;101882.44;;;22.04
31921;BMP280;66485;52.128;4.436;2023-05-07T12:31:07;101882.44;;;22.04
31921;BMP280;66485;52.128;4.436;2023-05-07T12:33:32;101889.44;;;22.05
31921;BMP280;66485;52.128;4.436;2023-05-07T12:35:58;101889.41;;;22.08
31921;BMP280;66485;52.128;4.436;2023-05-07T12:38:23;101892.50;;;22.10
31921;BMP280;66485;52.128;4.436;2023-05-07T12:40:55;101897.09;;;22.14
31921;BMP280;66485;52.128;4.436;2023-05-07T12:43:25;101897.16;;;22.10
31921;BMP280;66485;52.128;4.436;2023-05-07T12:45:53;101896.41;;;22.09
31921;BMP280;66485;52.128;4.436;2023-05-07T12:48:19;101896.41;;;22.09
31921;BMP280;66485;52.128;4.436;2023-05-07T12:50:45;101898.34;;;22.09
31921;BMP280;66485;52.128;4.436;2023-05-07T12:53:14;101898.34;;;22.09
31921;BMP280;66485;52.128;4.436;2023-05-07T12:55:47;101904.22;;;22.07
31921;BMP280;66485;52.128;4.436;2023-05-07T12:58:17;101904.22;;;22.07
31921;BMP280;66485;52.128;4.436;2023-05-07T13:00:42;101906.94;;;22.07
31921;BMP280;66485;52.128;4.436;2023-05-07T13:03:08;101906.94;;;22.07
31921;BMP280;66485;52.128;4.436;2023-05-07T13:05:34;101917.09;;;22.07
31921;BMP280;66485;52.128;4.436;2023-05-07T13:08:00;101922.56;;;22.07
31921;BMP280;66485;52.128;4.436;2023-05-07T13:10:26;101922.56;;;22.07
31921;BMP280;66485;52.128;4.436;2023-05-07T13:12:51;101920.59;;;22.07
31921;BMP280;66485;52.128;4.436;2023-05-07T13:15:17;101920.59;;;22.07
31921;BMP280;66485;52.128;4.436;2023-05-07T13:17:43;101913.22;;;22.04
31921;BMP280;66485;52.128;4.436;2023-05-07T13:20:09;101931.47;;;22.11
31921;BMP280;66485;52.128;4.436;2023-05-07T13:22:35;101931.47;;;22.11
31921;BMP280;66485;52.128;4.436;2023-05-07T13:25:01;101929.91;;;22.10
31921;BMP280;66485;52.128;4.436;2023-05-07T13:27:26;101929.91;;;22.10
31921;BMP280;66485;52.128;4.436;2023-05-07T13:29:51;101931.47;;;22.11
31921;BMP280;66485;52.128;4.436;2023-05-07T13:32:17;101921.72;;;22.10
31921;BMP280;66485;52.128;4.436;2023-05-07T13:34:42;101930.97;;;22.16
31921;BMP280;66485;52.128;4.436;2023-05-07T13:37:07;101922.38;;;22.18
31921;BMP280;66485;52.128;4.436;2023-05-07T13:39:33;101922.38;;;22.18
31921;BMP280;66485;52.128;4.436;2023-05-07T13:41:58;101913.41;;;22.17
31921;BMP280;66485;52.128;4.436;2023-05-07T13:44:24;101914.91;;;22.22
31921;BMP280;66485;52.128;4.436;2023-05-07T13:46:49;101917.63;;;22.22
31921;BMP280;66485;52.128;4.436;2023-05-07T13:49:15;101917.63;;;22.22
31921;BMP280;66485;52.128;4.436;2023-05-07T13:51:40;101931.22;;;22.25
31921;BMP280;66485;52.128;4.436;2023-05-07T13:54:05;101931.22;;;22.25
31921;BMP280;66485;52.128;4.436;2023-05-07T13:56:31;101931.69;;;22.20
31921;BMP280;66485;52.128;4.436;2023-05-07T13:58:58;101940.28;;;22.19
31921;BMP280;66485;52.128;4.436;2023-05-07T14:01:23;101938.34;;;22.19
31921;BMP280;66485;52.128;4.436;2023-05-07T14:03:48;101936.00;;;22.18
31921;BMP280;66485;52.128;4.436;2023-05-07T14:06:14;101941.13;;;22.16
31921;BMP280;66485;52.128;4.436;2023-05-07T14:08:39;101946.94;;;22.18